Time;durP1;ratioP1;P1;durP2;ratioP2;P2;SDS_P1;SDS_P2;PMS_P1;PMS_P2;Temp;Humidity;BMP_temperature;BMP_pressure;BME280_temperature;BME280_humidity;BME280_pressure;Samples;Min_cycle;Max_cycle;Signal;HPM_P1;HPM_P2
2021/01/13 00:00:47;;;;;;;29.70;12.30;;;6.30;68.90;;;;;;7678275;23;20032;-74
2021/01/13 00:03:48;;;;;;;29.83;13.35;;;6.30;68.90;;;;;;7679188;23;20021;-73
2021/01/13 00:06:50;;;;;;;30.67;14.05;;;6.30;68.90;;;;;;7680853;23;20021;-74
2021/01/13 00:09:51;;;;;;;35.30;14.90;;;6.30;68.90;;;;;;7681136;23;20087;-75
2021/01/13 00:12:52;;;;;;;33.67;13.85;;;6.30;68.90;;;;;;7679621;23;20368;-73
2021/01/13 00:15:53;;;;;;;30.48;14.15;;;6.30;68.90;;;;;;7679827;23;20027;-73
2021/01/13 00:18:53;;;;;;;37.83;14.88;;;6.30;68.90;;;;;;7678708;23;20005;-73
2021/01/13 00:21:55;;;;;;;35.63;14.00;;;6.30;69.00;;;;;;7678879;23;20019;-73
2021/01/13 00:24:57;;;;;;;38.13;14.88;;;6.30;68.90;;;;;;7654015;23;20031;-72
2021/01/13 00:27:58;;;;;;;34.20;15.10;;;6.30;68.90;;;;;;7678934;23;20013;-72
2021/01/13 00:30:59;;;;;;;35.40;14.85;;;6.30;68.90;;;;;;7654024;23;20009;-74
2021/01/13 00:34:00;;;;;;;33.10;13.60;;;6.30;68.80;;;;;;7679705;23;20051;-75
2021/01/13 00:37:01;;;;;;;32.50;14.75;;;6.20;68.80;;;;;;7678635;23;20096;-72
2021/01/13 00:40:06;;;;;;;32.35;15.63;;;6.20;68.90;;;;;;7678725;23;20082;-73
2021/01/13 00:43:07;;;;;;;33.38;13.15;;;6.20;68.90;;;;;;7678286;23;20043;-72
2021/01/13 00:46:07;;;;;;;35.83;15.15;;;6.20;69.00;;;;;;7678640;23;20021;-74
2021/01/13 00:49:09;;;;;;;33.47;13.93;;;6.10;69.10;;;;;;7683022;23;20380;-73
2021/01/13 00:52:10;;;;;;;34.67;14.55;;;6.10;69.10;;;;;;7690537;23;20021;-74
2021/01/13 00:55:11;;;;;;;31.13;12.15;;;6.20;69.20;;;;;;7679515;23;20087;-73
2021/01/13 00:58:12;;;;;;;34.28;13.45;;;6.20;69.10;;;;;;7653059;23;20290;-73
2021/01/13 01:01:14;;;;;;;33.08;14.15;;;6.20;69.10;;;;;;7690940;23;20024;-73
2021/01/13 01:04:15;;;;;;;26.20;11.88;;;6.20;69.20;;;;;;7704080;23;20415;-73
2021/01/13 01:07:15;;;;;;;32.92;13.45;;;6.20;69.20;;;;;;7690848;23;20031;-73
2021/01/13 01:10:27;;;;;;;32.08;13.15;;;6.10;69.20;;;;;;7716864;23;20031;-73
2021/01/13 01:13:28;;;;;;;31.70;12.27;;;6.10;69.30;;;;;;7678374;23;20028;-73
2021/01/13 01:16:33;;;;;;;35.65;14.32;;;6.10;69.40;;;;;;7716626;23;20017;-73
2021/01/13 01:19:34;;;;;;;28.70;11.23;;;6.10;69.40;;;;;;7716743;23;20013;-73
2021/01/13 01:22:50;;;;;;;38.83;14.20;;;6.10;69.50;;;;;;7665551;23;20013;-73
2021/01/13 01:25:50;;;;;;;22.65;10.10;;;6.10;69.60;;;;;;7715920;23;20004;-73
2021/01/13 01:28:51;;;;;;;33.25;13.48;;;6.10;69.70;;;;;;7689972;23;20024;-74
2021/01/13 01:31:53;;;;;;;27.35;11.48;;;6.10;69.70;;;;;;7690547;23;20408;-73
2021/01/13 01:34:54;;;;;;;31.60;12.32;;;6.10;69.70;;;;;;7690247;23;20036;-73
2021/01/13 01:37:54;;;;;;;25.50;10.73;;;6.20;69.80;;;;;;7689765;23;20095;-73
2021/01/13 01:41:06;;;;;;;32.55;12.25;;;6.20;69.80;;;;;;7664893;23;20043;-73
2021/01/13 01:44:07;;;;;;;29.42;12.40;;;6.20;69.80;;;;;;7690439;23;20016;-73
2021/01/13 01:47:08;;;;;;;30.33;12.15;;;6.20;69.80;;;;;;7690199;23;20012;-73
2021/01/13 01:50:10;;;;;;;30.83;11.73;;;6.20;69.70;;;;;;7676831;23;20025;-73
2021/01/13 01:53:17;;;;;;;27.35;11.68;;;6.30;69.80;;;;;;7677894;23;20012;-73
2021/01/13 01:56:28;;;;;;;22.30;10.95;;;6.20;69.80;;;;;;7678388;23;20100;-73
2021/01/13 01:59:49;;;;;;;27.45;9.98;;;6.20;69.90;;;;;;7640625;23;20068;-73
2021/01/13 02:02:59;;;;;;;33.33;12.15;;;6.20;70.00;;;;;;7668340;23;20023;-73
2021/01/13 02:06:07;;;;;;;23.35;10.27;;;6.20;70.10;;;;;;7678121;23;20282;-74
2021/01/13 02:09:08;;;;;;;30.30;11.55;;;6.20;70.10;;;;;;7677774;23;20023;-74
2021/01/13 02:12:11;;;;;;;20.50;9.85;;;6.20;70.10;;;;;;7651060;23;20009;-73
2021/01/13 02:15:12;;;;;;;29.33;11.23;;;6.20;70.10;;;;;;7678036;23;20036;-73
2021/01/13 02:18:18;;;;;;;28.80;11.93;;;6.20;70.10;;;;;;7673544;23;20024;-72
2021/01/13 02:21:20;;;;;;;37.70;11.80;;;6.20;70.30;;;;;;7676193;23;20099;-73
2021/01/13 02:25:04;;;;;;;23.95;11.10;;;6.20;70.40;;;;;;7651187;23;20017;-73
2021/01/13 02:28:19;;;;;;;23.70;11.35;;;6.30;70.40;;;;;;7653364;23;20089;-74
2021/01/13 02:31:39;;;;;;;26.25;11.18;;;6.30;70.40;;;;;;7677112;23;20417;-73
2021/01/13 02:34:59;;;;;;;27.67;12.40;;;6.30;70.40;;;;;;7677463;23;20013;-73
2021/01/13 02:38:12;;;;;;;25.90;11.48;;;6.30;70.50;;;;;;7675149;23;20021;-73
2021/01/13 02:41:16;;;;;;;24.83;11.00;;;6.30;70.50;;;;;;7650574;23;20031;-72
2021/01/13 02:44:28;;;;;;;24.50;11.73;;;6.30;70.50;;;;;;7676097;23;20110;-75
2021/01/13 02:47:46;;;;;;;29.30;11.77;;;6.30;70.50;;;;;;7651482;23;20013;-74
2021/01/13 02:50:59;;;;;;;29.13;11.93;;;6.30;70.50;;;;;;7671946;23;20090;-72
2021/01/13 02:54:12;;;;;;;32.28;12.57;;;6.30;71.30;;;;;;7676328;23;20032;-73
2021/01/13 02:57:19;;;;;;;33.33;13.50;;;6.30;70.50;;;;;;7664071;23;20087;-72
2021/01/13 03:00:20;;;;;;;30.33;12.43;;;6.40;70.50;;;;;;7665651;23;20468;-74
2021/01/13 03:03:22;;;;;;;32.95;12.02;;;6.40;70.30;;;;;;7624891;23;20022;-73
2021/01/13 03:06:28;;;;;;;29.25;12.45;;;6.40;70.20;;;;;;7634029;23;20081;-73
2021/01/13 03:09:35;;;;;;;28.58;12.02;;;6.40;70.20;;;;;;7678015;23;20096;-74
2021/01/13 03:12:40;;;;;;;29.02;12.65;;;6.40;70.30;;;;;;7677842;23;20024;-73
2021/01/13 03:15:41;;;;;;;26.90;12.00;;;6.40;70.20;;;;;;7653214;23;20369;-74
2021/01/13 03:19:02;;;;;;;31.05;12.30;;;6.40;70.20;;;;;;7677821;23;20024;-73
2021/01/13 03:22:09;;;;;;;26.27;11.75;;;6.30;70.30;;;;;;7678191;23;20031;-73
2021/01/13 03:25:11;;;;;;;31.65;13.20;;;6.30;70.30;;;;;;7678453;23;20086;-73
2021/01/13 03:28:16;;;;;;;28.10;11.73;;;6.30;70.30;;;;;;7674171;23;20031;-73
2021/01/13 03:31:25;;;;;;;25.38;12.40;;;6.40;70.40;;;;;;7677973;23;20020;-74
2021/01/13 03:34:30;;;;;;;24.38;11.25;;;6.40;70.30;;;;;;7654017;23;20063;-73
2021/01/13 03:37:50;;;;;;;32.70;12.77;;;6.30;70.10;;;;;;7678965;23;20017;-73
2021/01/13 03:40:52;;;;;;;23.05;11.43;;;6.30;70.10;;;;;;7679195;23;20017;-73
2021/01/13 03:43:53;;;;;;;29.48;13.05;;;6.30;70.30;;;;;;7678792;23;20024;-73
2021/01/13 03:46:55;;;;;;;28.00;12.30;;;6.20;70.20;;;;;;7680513;23;20480;-73
2021/01/13 03:50:17;;;;;;;24.73;10.85;;;6.20;70.40;;;;;;7693353;23;20458;-74
2021/01/13 03:53:20;;;;;;;25.70;13.10;;;6.10;70.40;;;;;;7691399;23;20064;-73
2021/01/13 03:56:26;;;;;;;29.42;12.57;;;6.10;70.40;;;;;;7691687;23;20023;-74
2021/01/13 03:59:58;;;;;;;26.15;11.07;;;6.10;70.50;;;;;;7690527;23;20036;-73
2021/01/13 04:03:26;;;;;;;26.35;12.32;;;6.10;70.60;;;;;;7602155;23;20017;-74
2021/01/13 04:06:28;;;;;;;33.17;12.60;;;6.10;70.70;;;;;;7603155;23;20081;-73
2021/01/13 04:09:31;;;;;;;28.67;11.98;;;6.10;70.80;;;;;;7579375;23;20081;-73
2021/01/13 04:12:38;;;;;;;26.90;11.18;;;6.10;70.90;;;;;;7627459;23;20131;-73
2021/01/13 04:15:39;;;;;;;27.45;12.05;;;6.10;70.90;;;;;;7602469;23;20299;-74
2021/01/13 04:18:42;;;;;;;33.28;13.95;;;6.10;71.00;;;;;;7602424;23;20033;-73
2021/01/13 04:21:43;;;;;;;27.63;12.73;;;6.20;70.90;;;;;;7602712;23;20029;-73
2021/01/13 04:24:48;;;;;;;24.83;11.50;;;6.20;70.80;;;;;;7578153;23;20018;-73
2021/01/13 04:27:49;;;;;;;26.85;12.23;;;6.20;70.90;;;;;;7601426;23;20017;-73
2021/01/13 04:30:51;;;;;;;29.08;12.13;;;6.20;70.70;;;;;;7602452;23;20033;-74
2021/01/13 04:33:53;;;;;;;20.10;9.75;;;6.20;70.70;;;;;;7579383;23;20018;-74
2021/01/13 04:36:57;;;;;;;27.65;11.63;;;6.20;70.80;;;;;;7604144;23;20026;-74
2021/01/13 04:40:15;;;;;;;26.50;9.90;;;6.20;70.80;;;;;;7664824;23;20494;-73
2021/01/13 04:43:23;;;;;;;27.77;11.95;;;6.30;70.70;;;;;;7626429;23;20017;-73
2021/01/13 04:46:35;;;;;;;18.70;8.63;;;6.30;70.80;;;;;;7689263;23;20017;-74
2021/01/13 04:49:37;;;;;;;27.13;11.25;;;6.40;70.80;;;;;;7688303;23;20040;-74
2021/01/13 04:52:42;;;;;;;26.30;11.50;;;6.40;70.70;;;;;;7688959;23;20024;-74
2021/01/13 04:55:48;;;;;;;25.60;11.65;;;6.40;70.50;;;;;;7689332;23;20016;-74
2021/01/13 04:59:19;;;;;;;27.73;12.63;;;6.40;70.50;;;;;;7714973;23;20159;-74
2021/01/13 05:02:49;;;;;;;27.40;10.70;;;6.40;70.50;;;;;;7687806;23;20088;-74
2021/01/13 05:05:55;;;;;;;23.65;11.00;;;6.40;70.50;;;;;;7688838;23;20028;-73
2021/01/13 05:09:07;;;;;;;24.75;10.75;;;6.40;70.20;;;;;;7715244;23;20374;-73
2021/01/13 05:12:10;;;;;;;24.08;11.25;;;6.40;70.30;;;;;;7690217;23;20056;-73
2021/01/13 05:15:22;;;;;;;21.98;10.63;;;6.40;70.30;;;;;;7714494;23;20051;-73
2021/01/13 05:18:49;;;;;;;25.10;10.20;;;6.40;70.30;;;;;;7676367;23;20075;-74
2021/01/13 05:21:56;;;;;;;20.35;9.35;;;6.40;70.30;;;;;;7681925;23;20087;-73
2021/01/13 05:25:02;;;;;;;17.17;7.82;;;6.30;70.10;;;;;;7688422;23;20020;-73
2021/01/13 05:28:10;;;;;;;20.80;9.02;;;6.30;70.10;;;;;;7687082;23;20023;-73
2021/01/13 05:31:17;;;;;;;18.98;8.65;;;6.20;70.30;;;;;;7663793;23;20024;-73
2021/01/13 05:34:19;;;;;;;24.23;8.70;;;6.20;70.50;;;;;;7688803;23;20012;-73
2021/01/13 05:37:45;;;;;;;19.50;8.30;;;6.20;70.70;;;;;;7688111;23;20252;-73
2021/01/13 05:40:54;;;;;;;16.65;7.88;;;6.10;70.80;;;;;;7678213;23;20021;-73
2021/01/13 05:43:55;;;;;;;18.30;8.80;;;6.10;70.80;;;;;;7687842;23;20039;-74
2021/01/13 05:47:01;;;;;;;19.08;8.73;;;6.20;71.00;;;;;;7714193;23;20027;-74
2021/01/13 05:50:03;;;;;;;18.80;9.20;;;6.20;71.00;;;;;;7688493;23;20440;-74
2021/01/13 05:53:06;;;;;;;18.83;8.45;;;6.10;70.90;;;;;;7699328;23;20016;-72
2021/01/13 05:56:07;;;;;;;20.40;9.18;;;6.10;70.90;;;;;;7687911;23;20379;-74
2021/01/13 05:59:13;;;;;;;23.10;9.55;;;6.10;71.00;;;;;;7687521;23;20019;-75
2021/01/13 06:02:16;;;;;;;18.90;8.48;;;6.20;71.00;;;;;;7714954;23;20119;-73
2021/01/13 06:05:17;;;;;;;17.48;7.90;;;6.20;71.00;;;;;;7663755;23;20143;-73
2021/01/13 06:08:21;;;;;;;18.88;8.82;;;6.20;70.90;;;;;;7712790;23;20304;-74
2021/01/13 06:11:24;;;;;;;20.52;8.27;;;6.20;70.90;;;;;;7663184;23;20305;-72
2021/01/13 06:14:27;;;;;;;19.80;7.82;;;6.30;70.80;;;;;;7688580;23;20020;-73
2021/01/13 06:17:28;;;;;;;16.13;7.90;;;6.30;70.70;;;;;;7713619;23;20082;-75
2021/01/13 06:20:30;;;;;;;17.17;8.70;;;6.40;70.60;;;;;;7663598;23;20408;-73
2021/01/13 06:23:32;;;;;;;15.70;7.88;;;6.40;70.40;;;;;;7714722;23;20371;-75
2021/01/13 06:27:00;;;;;;;19.25;8.48;;;6.50;70.30;;;;;;7714559;23;20017;-75
2021/01/13 06:30:02;;;;;;;17.58;7.40;;;6.50;70.30;;;;;;7687124;23;20017;-73
2021/01/13 06:33:09;;;;;;;17.00;8.05;;;6.50;70.20;;;;;;7676537;23;20017;-73
2021/01/13 06:36:13;;;;;;;14.63;7.93;;;6.50;70.10;;;;;;7676997;23;20035;-74
2021/01/13 06:39:16;;;;;;;15.35;8.02;;;6.60;70.00;;;;;;7653072;23;20087;-75
2021/01/13 06:42:30;;;;;;;20.02;9.02;;;6.50;69.80;;;;;;7653000;23;20361;-74
2021/01/13 06:45:32;;;;;;;16.77;8.63;;;6.50;70.00;;;;;;7653237;23;20009;-73
2021/01/13 06:48:33;;;;;;;20.15;8.75;;;6.50;70.00;;;;;;7652904;23;20009;-74
2021/01/13 06:51:35;;;;;;;17.67;8.30;;;6.50;70.00;;;;;;7674231;23;20039;-73
2021/01/13 06:54:48;;;;;;;16.08;8.15;;;6.50;70.10;;;;;;7653738;23;20013;-73
2021/01/13 06:57:52;;;;;;;15.27;7.88;;;6.40;69.90;;;;;;7681057;23;20021;-73
2021/01/13 07:01:01;;;;;;;19.38;9.00;;;6.50;70.00;;;;;;7678849;23;20148;-73
2021/01/13 07:04:06;;;;;;;17.98;7.60;;;6.50;70.10;;;;;;7652784;23;20021;-74
2021/01/13 07:07:08;;;;;;;22.77;9.20;;;6.50;70.10;;;;;;7653215;23;20013;-74
2021/01/13 07:10:11;;;;;;;16.20;7.57;;;6.50;70.00;;;;;;7690747;23;20396;-74
2021/01/13 07:13:15;;;;;;;19.98;8.98;;;6.60;70.00;;;;;;7653993;23;20075;-74
2021/01/13 07:16:21;;;;;;;21.90;10.95;;;6.50;69.90;;;;;;7716516;23;20025;-73
2021/01/13 07:19:22;;;;;;;18.60;8.32;;;6.50;69.90;;;;;;7713751;23;20008;-73
2021/01/13 07:22:25;;;;;;;22.15;9.63;;;6.50;69.90;;;;;;7676168;23;20017;-74
2021/01/13 07:25:26;;;;;;;19.13;7.68;;;6.50;70.00;;;;;;7661254;23;20008;-73
2021/01/13 07:28:27;;;;;;;18.20;7.70;;;6.50;70.10;;;;;;7652492;23;20372;-73
2021/01/13 07:31:30;;;;;;;18.73;8.55;;;6.40;70.20;;;;;;7652721;23;21062;-75
2021/01/13 07:34:42;;;;;;;18.45;8.52;;;6.40;70.20;;;;;;7678958;23;20009;-74
2021/01/13 07:38:01;;;;;;;21.27;8.90;;;6.50;70.50;;;;;;7679694;23;20020;-74
2021/01/13 07:41:08;;;;;;;13.77;7.78;;;6.50;70.40;;;;;;7653772;23;20087;-74
2021/01/13 07:44:18;;;;;;;19.23;7.05;;;6.50;70.30;;;;;;7654175;23;20071;-74
2021/01/13 07:47:28;;;;;;;20.17;8.60;;;6.50;70.30;;;;;;7682819;23;20075;-73
2021/01/13 07:50:32;;;;;;;16.08;8.43;;;6.50;70.50;;;;;;7708648;23;20036;-74
2021/01/13 07:53:37;;;;;;;22.85;9.48;;;6.60;70.40;;;;;;7722701;23;20023;-73
2021/01/13 07:56:43;;;;;;;20.70;7.95;;;6.70;70.40;;;;;;7692859;23;20431;-74
2021/01/13 07:59:50;;;;;;;20.08;9.35;;;6.70;70.40;;;;;;7689977;23;20024;-73
2021/01/13 08:03:11;;;;;;;20.13;8.88;;;6.70;70.40;;;;;;7714755;23;20019;-74
2021/01/13 08:06:35;;;;;;;17.23;9.02;;;6.80;70.40;;;;;;7689501;23;20162;-73
2021/01/13 08:09:48;;;;;;;16.33;7.70;;;6.90;70.20;;;;;;7689115;23;20008;-73
2021/01/13 08:13:36;;;;;;;29.10;9.07;;;6.90;70.10;;;;;;7690529;23;20475;-74
2021/01/13 08:17:03;;;;;;;14.63;8.35;;;7.00;70.00;;;;;;7689104;23;20095;-73
2021/01/13 08:20:26;;;;;;;16.08;8.45;;;7.00;69.70;;;;;;7692263;23;20397;-74
2021/01/13 08:23:41;;;;;;;19.60;9.63;;;7.00;69.70;;;;;;7676741;23;20050;-73
2021/01/13 08:26:43;;;;;;;24.75;8.63;;;7.00;69.60;;;;;;7665773;23;20086;-74
2021/01/13 08:29:57;;;;;;;17.65;7.20;;;7.10;69.60;;;;;;7653440;23;20083;-73
2021/01/13 08:33:00;;;;;;;18.63;8.55;;;7.10;69.50;;;;;;7704804;23;20020;-74
2021/01/13 08:36:08;;;;;;;16.05;7.22;;;7.10;69.60;;;;;;7686476;23;20082;-74
2021/01/13 08:39:14;;;;;;;16.65;8.05;;;7.20;69.60;;;;;;7688110;23;20439;-73
2021/01/13 08:42:31;;;;;;;21.70;9.63;;;7.30;69.50;;;;;;7690287;23;20017;-74
2021/01/13 08:45:34;;;;;;;20.63;7.30;;;7.30;69.40;;;;;;7692064;23;20022;-73
2021/01/13 08:48:38;;;;;;;18.38;8.35;;;7.40;69.30;;;;;;7695036;23;20016;-75
2021/01/13 08:52:11;;;;;;;18.58;7.60;;;7.50;69.20;;;;;;7726613;23;20072;-73
2021/01/13 08:55:14;;;;;;;16.67;8.20;;;7.50;69.00;;;;;;7697195;23;20013;-73
2021/01/13 08:58:28;;;;;;;18.38;8.50;;;7.60;69.00;;;;;;7718072;23;20126;-74
2021/01/13 09:01:38;;;;;;;12.65;6.88;;;7.60;68.70;;;;;;7687689;23;20013;-75
2021/01/13 09:04:59;;;;;;;17.63;7.05;;;7.60;68.60;;;;;;7687039;23;20451;-73
2021/01/13 09:08:02;;;;;;;12.05;6.57;;;7.60;68.60;;;;;;7687888;23;20013;-73
2021/01/13 09:11:04;;;;;;;17.75;6.82;;;7.60;68.50;;;;;;7688562;23;20025;-76
2021/01/13 09:14:21;;;;;;;14.32;6.70;;;7.70;68.60;;;;;;7688605;23;20070;-74
2021/01/13 09:17:27;;;;;;;13.85;7.03;;;7.70;68.70;;;;;;7713960;23;20020;-74
2021/01/13 09:20:32;;;;;;;17.58;8.32;;;7.70;68.50;;;;;;7714469;23;20012;-73
2021/01/13 09:23:35;;;;;;;14.85;6.95;;;7.70;68.50;;;;;;7686414;23;20012;-75
2021/01/13 09:26:37;;;;;;;17.92;7.95;;;7.80;68.60;;;;;;7714600;23;20016;-74
2021/01/13 09:29:52;;;;;;;15.90;7.82;;;7.90;68.30;;;;;;7662770;23;20016;-74
2021/01/13 09:32:57;;;;;;;21.10;8.93;;;7.90;68.40;;;;;;7687740;23;20043;-74
2021/01/13 09:35:59;;;;;;;18.08;8.25;;;7.90;68.30;;;;;;7648570;23;20016;-74
2021/01/13 09:39:14;;;;;;;17.83;8.63;;;8.00;68.30;;;;;;7688133;23;20009;-75
2021/01/13 09:42:21;;;;;;;19.30;9.57;;;8.10;68.30;;;;;;7714641;23;20301;-75
2021/01/13 09:45:36;;;;;;;23.50;10.98;;;8.20;68.30;;;;;;7686156;23;20004;-74
2021/01/13 09:48:37;;;;;;;20.98;9.35;;;8.20;67.90;;;;;;7687497;23;20412;-75
2021/01/13 09:51:39;;;;;;;38.05;12.48;;;8.30;67.60;;;;;;7686131;23;20021;-74
2021/01/13 09:54:53;;;;;;;31.70;14.05;;;8.30;67.50;;;;;;7651283;23;20083;-75
2021/01/13 09:58:14;;;;;;;26.38;12.32;;;8.20;67.50;;;;;;7688050;23;20112;-75
2021/01/13 10:01:26;;;;;;;31.40;11.85;;;8.30;67.60;;;;;;7650124;23;20087;-76
2021/01/13 10:04:28;;;;;;;20.92;9.68;;;8.30;67.70;;;;;;7676694;23;20013;-75
2021/01/13 10:07:31;;;;;;;24.23;10.82;;;8.30;67.50;;;;;;7711038;23;20095;-75
2021/01/13 10:10:33;;;;;;;53.63;20.38;;;8.30;67.50;;;;;;7714204;23;20013;-74
2021/01/13 10:13:41;;;;;;;29.15;11.43;;;8.30;67.30;;;;;;7688037;23;20040;-74
2021/01/13 10:16:44;;;;;;;27.48;9.98;;;8.40;67.40;;;;;;7665158;23;20020;-74
2021/01/13 10:19:46;;;;;;;23.48;9.98;;;8.40;67.30;;;;;;7689860;23;20367;-75
2021/01/13 10:22:48;;;;;;;25.50;11.05;;;8.40;67.40;;;;;;7654016;23;20020;-74
2021/01/13 10:25:49;;;;;;;34.55;11.68;;;8.50;67.30;;;;;;7653287;23;20021;-75
2021/01/13 10:28:56;;;;;;;24.60;10.35;;;8.60;67.20;;;;;;7628177;23;20033;-74
2021/01/13 10:31:58;;;;;;;23.85;10.60;;;8.60;67.00;;;;;;7654252;23;20025;-74
2021/01/13 10:34:59;;;;;;;22.42;10.13;;;8.70;66.80;;;;;;7653118;23;20080;-74
2021/01/13 10:38:00;;;;;;;22.80;9.73;;;8.70;66.70;;;;;;7651486;23;20028;-74
2021/01/13 10:41:01;;;;;;;18.42;8.40;;;8.80;66.60;;;;;;7651129;23;20021;-75
2021/01/13 10:44:11;;;;;;;20.27;9.18;;;8.80;66.40;;;;;;7652759;23;20052;-74
2021/01/13 10:47:12;;;;;;;26.55;8.43;;;8.70;66.50;;;;;;7628000;23;20013;-74
2021/01/13 10:50:18;;;;;;;32.30;11.43;;;8.80;66.60;;;;;;7716073;23;20017;-74
2021/01/13 10:53:30;;;;;;;21.15;10.13;;;8.80;66.60;;;;;;7663625;23;20337;-74
2021/01/13 10:56:33;;;;;;;18.85;8.48;;;8.80;66.50;;;;;;7656845;23;20018;-73
2021/01/13 10:59:36;;;;;;;26.13;10.77;;;8.80;66.40;;;;;;7627691;23;20024;-75
2021/01/13 11:02:38;;;;;;;19.92;9.68;;;8.70;66.40;;;;;;7653594;23;20013;-74
2021/01/13 11:05:39;;;;;;;17.02;9.13;;;8.80;66.70;;;;;;7653408;23;20013;-74
2021/01/13 11:08:42;;;;;;;19.45;8.98;;;8.80;66.70;;;;;;7658086;23;20028;-74
2021/01/13 11:11:47;;;;;;;21.38;9.70;;;8.80;66.40;;;;;;7676517;23;20036;-74
2021/01/13 11:14:51;;;;;;;21.25;8.90;;;8.80;66.60;;;;;;7646650;23;20020;-75
2021/01/13 11:17:55;;;;;;;17.65;8.77;;;8.90;66.60;;;;;;7706017;23;20110;-75
2021/01/13 11:20:57;;;;;;;20.20;8.55;;;9.00;66.50;;;;;;7703217;23;20074;-75
2021/01/13 11:23:58;;;;;;;15.05;7.60;;;9.10;66.40;;;;;;7683627;23;20281;-75
2021/01/13 11:27:06;;;;;;;17.55;8.25;;;9.20;66.30;;;;;;7654310;23;20352;-78
2021/01/13 11:30:09;;;;;;;14.68;7.60;;;9.20;66.00;;;;;;7691336;23;20016;-75
2021/01/13 11:33:13;;;;;;;16.00;8.43;;;9.30;65.70;;;;;;7702672;23;20092;-76
2021/01/13 11:36:25;;;;;;;19.73;8.50;;;9.30;65.60;;;;;;7664137;23;20009;-75
2021/01/13 11:39:29;;;;;;;21.40;9.23;;;9.40;65.60;;;;;;7662552;23;20408;-73
2021/01/13 11:42:39;;;;;;;17.42;7.70;;;9.40;65.60;;;;;;7690017;23;20036;-74
2021/01/13 11:46:13;;;;;;;18.67;8.40;;;9.40;65.50;;;;;;7676413;23;20472;-75
2021/01/13 11:49:23;;;;;;;16.92;7.93;;;9.30;65.50;;;;;;7626514;23;20083;-73
2021/01/13 11:52:30;;;;;;;18.77;9.10;;;9.30;65.70;;;;;;7689863;23;20027;-75
2021/01/13 11:55:32;;;;;;;20.55;8.82;;;9.30;65.80;;;;;;7664012;23;20020;-73
2021/01/13 11:58:44;;;;;;;18.98;8.20;;;9.40;65.90;;;;;;7690588;23;20028;-74
2021/01/13 12:01:47;;;;;;;24.20;10.20;;;9.40;65.90;;;;;;7610424;23;20086;-74
2021/01/13 12:04:49;;;;;;;25.80;9.07;;;9.40;65.80;;;;;;7651151;23;20047;-74
2021/01/13 12:07:59;;;;;;;17.55;9.32;;;9.40;65.80;;;;;;7679280;23;20251;-75
2021/01/13 12:11:02;;;;;;;22.90;8.57;;;9.30;65.90;;;;;;7663386;23;20031;-74
2021/01/13 12:14:03;;;;;;;20.70;8.25;;;9.40;65.90;;;;;;7715450;23;20055;-75
2021/01/13 12:17:04;;;;;;;18.40;9.10;;;9.40;65.80;;;;;;7649178;23;20100;-74
2021/01/13 12:20:05;;;;;;;16.52;8.50;;;9.40;65.70;;;;;;7718400;23;20028;-74
2021/01/13 12:23:19;;;;;;;23.00;9.48;;;9.50;65.80;;;;;;7705569;23;20016;-73
2021/01/13 12:26:32;;;;;;;19.38;9.18;;;9.50;65.70;;;;;;7701303;23;20016;-75
2021/01/13 12:29:34;;;;;;;20.27;9.57;;;9.50;65.70;;;;;;7699073;23;20022;-75
2021/01/13 12:32:36;;;;;;;20.13;10.60;;;9.40;65.60;;;;;;7717767;23;20016;-74
2021/01/13 12:35:36;;;;;;;19.83;9.43;;;9.40;65.80;;;;;;7716312;23;20091;-74
2021/01/13 12:38:43;;;;;;;23.02;8.85;;;9.50;65.90;;;;;;7688617;23;20035;-75
2021/01/13 12:41:49;;;;;;;17.40;8.27;;;9.50;65.80;;;;;;7689875;23;20348;-74
2021/01/13 12:44:50;;;;;;;16.30;8.63;;;9.50;65.80;;;;;;7675493;23;20036;-76
2021/01/13 12:47:55;;;;;;;18.38;9.23;;;9.50;65.80;;;;;;7688985;23;20109;-74
2021/01/13 12:50:56;;;;;;;16.23;8.55;;;9.50;66.00;;;;;;7711568;23;20436;-73
2021/01/13 12:54:00;;;;;;;17.15;8.65;;;9.50;66.00;;;;;;7687802;23;20026;-73
2021/01/13 12:57:01;;;;;;;16.75;8.38;;;9.50;66.40;;;;;;7688438;23;20395;-74
2021/01/13 13:00:04;;;;;;;17.85;8.52;;;9.50;66.10;;;;;;7713803;23;20043;-74
2021/01/13 13:03:05;;;;;;;17.00;7.68;;;9.50;66.90;;;;;;7688174;23;20012;-74
2021/01/13 13:06:08;;;;;;;15.45;8.80;;;9.50;66.90;;;;;;7662914;23;20023;-74
2021/01/13 13:09:11;;;;;;;18.75;8.50;;;9.50;66.10;;;;;;7688355;23;20095;-73
2021/01/13 13:12:16;;;;;;;24.75;11.02;;;9.60;66.20;;;;;;7688487;23;20023;-75
2021/01/13 13:15:19;;;;;;;23.48;8.43;;;9.60;66.10;;;;;;7690162;23;20331;-75
2021/01/13 13:18:20;;;;;;;26.38;10.32;;;9.60;66.10;;;;;;7704636;23;20083;-75
2021/01/13 13:21:24;;;;;;;20.58;9.50;;;9.60;65.90;;;;;;7715800;23;20020;-73
2021/01/13 13:24:27;;;;;;;19.60;10.35;;;9.50;66.00;;;;;;7690256;23;20016;-74
2021/01/13 13:27:31;;;;;;;19.27;9.13;;;9.50;66.90;;;;;;7690076;23;20016;-75
2021/01/13 13:30:31;;;;;;;17.33;8.98;;;9.50;66.00;;;;;;7664251;23;20031;-73
2021/01/13 13:33:34;;;;;;;18.83;9.40;;;9.50;66.00;;;;;;7690070;23;20034;-74
2021/01/13 13:36:35;;;;;;;14.23;7.53;;;9.50;66.00;;;;;;7689371;23;20016;-74
2021/01/13 13:39:36;;;;;;;16.55;8.38;;;9.50;66.10;;;;;;7689552;23;20106;-74
2021/01/13 13:42:37;;;;;;;15.80;8.50;;;9.60;66.10;;;;;;7664855;23;20009;-74
2021/01/13 13:45:38;;;;;;;20.98;9.75;;;9.60;66.10;;;;;;7675101;23;20099;-75
2021/01/13 13:48:39;;;;;;;20.52;9.15;;;9.60;66.10;;;;;;7664357;23;20428;-73
2021/01/13 13:51:44;;;;;;;20.17;9.05;;;9.60;66.10;;;;;;7688910;23;20021;-74
2021/01/13 13:54:45;;;;;;;18.23;9.45;;;9.60;66.10;;;;;;7690369;23;20012;-74
2021/01/13 13:57:47;;;;;;;22.23;10.30;;;9.60;66.20;;;;;;7677557;23;20155;-74
2021/01/13 14:00:48;;;;;;;23.02;10.27;;;9.60;66.40;;;;;;7713576;23;20092;-74
2021/01/13 14:03:49;;;;;;;18.63;9.20;;;9.60;66.40;;;;;;7689232;23;20067;-74
2021/01/13 14:06:50;;;;;;;25.33;9.90;;;9.50;66.40;;;;;;7663901;23;20355;-73
2021/01/13 14:09:50;;;;;;;48.55;18.83;;;9.50;66.40;;;;;;7627170;23;20306;-73
2021/01/13 14:12:51;;;;;;;26.58;10.38;;;9.50;66.40;;;;;;7717093;23;20016;-75
2021/01/13 14:15:52;;;;;;;19.67;9.02;;;9.50;66.60;;;;;;7674376;23;20444;-75
2021/01/13 14:18:53;;;;;;;20.23;9.95;;;9.50;66.40;;;;;;7689516;23;20025;-74
2021/01/13 14:21:56;;;;;;;18.45;8.48;;;9.50;66.50;;;;;;7689129;23;20020;-75
2021/01/13 14:24:57;;;;;;;22.55;10.18;;;9.40;66.60;;;;;;7689160;23;20020;-74
2021/01/13 14:27:58;;;;;;;20.23;9.07;;;9.40;66.80;;;;;;7688680;23;20254;-75
2021/01/13 14:30:59;;;;;;;17.00;8.27;;;9.40;66.90;;;;;;7714508;23;20036;-75
2021/01/13 14:34:00;;;;;;;20.13;7.75;;;9.30;66.90;;;;;;7664878;23;20386;-75
2021/01/13 14:37:01;;;;;;;24.45;10.30;;;9.30;67.70;;;;;;7688620;23;20092;-76
2021/01/13 14:40:03;;;;;;;18.77;9.00;;;9.20;67.60;;;;;;7688776;23;20020;-75
2021/01/13 14:43:04;;;;;;;19.70;8.63;;;9.20;67.10;;;;;;7651974;23;20032;-74
2021/01/13 14:46:05;;;;;;;20.80;8.35;;;9.10;67.30;;;;;;7713223;23;20043;-75
2021/01/13 14:49:07;;;;;;;20.83;9.52;;;9.10;67.50;;;;;;7689000;23;20397;-75
2021/01/13 14:52:09;;;;;;;27.73;9.90;;;9.10;67.70;;;;;;7651798;23;20025;-74
2021/01/13 14:55:10;;;;;;;26.42;11.98;;;9.10;67.90;;;;;;7651513;23;20016;-74
2021/01/13 14:58:12;;;;;;;38.25;14.98;;;9.10;67.90;;;;;;7628155;23;20021;-75
2021/01/13 15:01:12;;;;;;;31.27;13.75;;;9.20;67.80;;;;;;7678684;23;20021;-73
2021/01/13 15:04:13;;;;;;;22.83;10.52;;;9.20;67.80;;;;;;7630279;23;20322;-75
2021/01/13 15:07:14;;;;;;;24.23;9.60;;;9.20;67.80;;;;;;7679168;23;20028;-73
2021/01/13 15:10:15;;;;;;;28.40;10.13;;;9.20;67.60;;;;;;7680335;23;20085;-75
2021/01/13 15:13:16;;;;;;;21.48;10.27;;;9.20;67.70;;;;;;7679041;23;20448;-73
2021/01/13 15:16:19;;;;;;;24.85;9.93;;;9.20;67.60;;;;;;7655469;23;20013;-74
2021/01/13 15:19:21;;;;;;;19.75;9.82;;;9.20;67.50;;;;;;7684888;23;20063;-76
2021/01/13 15:22:23;;;;;;;25.63;10.65;;;9.20;67.60;;;;;;7689232;23;20063;-74
2021/01/13 15:25:24;;;;;;;27.33;10.80;;;9.20;67.60;;;;;;7661084;23;20044;-74
2021/01/13 15:28:25;;;;;;;24.75;10.35;;;9.10;67.60;;;;;;7645396;23;20020;-74
2021/01/13 15:31:26;;;;;;;26.88;11.10;;;9.10;67.50;;;;;;7657025;23;20147;-75
2021/01/13 15:34:27;;;;;;;22.60;10.52;;;9.10;67.60;;;;;;7619471;23;20013;-74
2021/01/13 15:37:28;;;;;;;24.25;11.30;;;9.00;67.70;;;;;;7679423;23;20032;-74
2021/01/13 15:40:29;;;;;;;23.92;11.38;;;9.00;67.80;;;;;;7605129;23;20092;-74
2021/01/13 15:43:30;;;;;;;40.75;15.98;;;9.00;68.00;;;;;;7617383;23;20013;-73
2021/01/13 15:46:31;;;;;;;39.90;16.77;;;9.00;68.00;;;;;;7645255;23;20413;-74
2021/01/13 15:49:33;;;;;;;30.20;13.68;;;9.00;68.10;;;;;;7683732;23;20013;-73
2021/01/13 15:52:56;;;;;;;23.33;11.05;;;9.00;68.00;;;;;;7692062;23;20013;-74
2021/01/13 15:55:57;;;;;;;29.90;12.52;;;9.00;68.00;;;;;;7662879;23;20107;-74
2021/01/13 15:59:05;;;;;;;24.15;10.80;;;9.00;68.00;;;;;;7664705;23;20031;-74
2021/01/13 16:02:07;;;;;;;29.80;10.23;;;9.00;68.00;;;;;;7690882;23;20073;-74